Time;durP1;ratioP1;P1;durP2;ratioP2;P2;SDS_P1;SDS_P2;PMS_P1;PMS_P2;Temp;Humidity;BMP_temperature;BMP_pressure;BME280_temperature;BME280_humidity;BME280_pressure;Samples;Min_cycle;Max_cycle;Signal;HPM_P1;HPM_P2
2021/12/26 00:01:12;;;;;;;3.37;3.27;;;;;;;-3.86;62.35;100532.59;5093834;28;20769;-71
2021/12/26 00:03:40;;;;;;;3.77;3.67;;;;;;;-3.78;62.59;100535.28;5093506;28;20480;-71
2021/12/26 00:06:12;;;;;;;4.40;4.17;;;;;;;-3.78;62.33;100532.72;5093380;28;20438;-71
2021/12/26 00:08:41;;;;;;;4.30;4.17;;;;;;;-3.72;62.94;100531.09;5092205;28;20963;-71
2021/12/26 00:11:10;;;;;;;4.80;4.70;;;;;;;-3.66;62.75;100532.88;5093423;28;20431;-71
2021/12/26 00:13:37;;;;;;;4.17;4.17;;;;;;;-3.70;62.28;100537.09;5093394;28;20491;-71
2021/12/26 00:16:05;;;;;;;4.27;4.07;;;;;;;-3.59;62.60;100539.78;5093869;28;20450;-71
2021/12/26 00:18:32;;;;;;;3.90;3.80;;;;;;;-3.72;62.73;100538.75;5093595;28;20455;-71
2021/12/26 00:20:58;;;;;;;9.10;4.00;;;;;;;-3.60;62.78;100527.84;5093315;28;20482;-71
2021/12/26 00:23:25;;;;;;;4.57;4.47;;;;;;;-3.57;62.81;100522.78;5093599;28;20426;-71
2021/12/26 00:25:51;;;;;;;4.93;4.73;;;;;;;-3.66;63.01;100526.06;5095131;28;20831;-71
2021/12/26 00:28:18;;;;;;;4.57;4.47;;;;;;;-3.59;63.33;100524.44;5097505;28;20419;-71
2021/12/26 00:30:45;;;;;;;3.93;3.93;;;;;;;-3.49;62.79;100523.72;5097563;28;20408;-71
2021/12/26 00:33:13;;;;;;;3.50;3.50;;;;;;;-3.55;62.86;100521.09;5130342;27;20438;-71
2021/12/26 00:35:40;;;;;;;4.40;4.27;;;;;;;-3.62;62.68;100516.75;5097556;28;20936;-71
2021/12/26 00:38:07;;;;;;;5.73;4.70;;;;;;;-3.58;62.94;100515.91;5097512;28;20442;-71
2021/12/26 00:40:34;;;;;;;4.40;4.20;;;;;;;-3.58;62.92;100515.06;5097301;28;20422;-71
2021/12/26 00:43:00;;;;;;;4.60;4.50;;;;;;;-3.62;63.50;100506.50;5097291;28;20427;-71
2021/12/26 00:45:27;;;;;;;3.73;3.53;;;;;;;-3.57;63.57;100506.53;5097170;28;20503;-71
2021/12/26 00:47:54;;;;;;;4.50;4.50;;;;;;;-3.52;63.00;100507.47;5097149;28;20431;-71
2021/12/26 00:50:27;;;;;;;4.57;4.47;;;;;;;-3.47;62.70;100503.28;5097338;28;20491;-71
2021/12/26 00:52:53;;;;;;;4.33;4.13;;;;;;;-3.46;63.38;100499.88;5131101;27;20423;-71
2021/12/26 00:55:20;;;;;;;5.03;4.67;;;;;;;-3.50;63.41;100509.22;5096959;28;20472;-71
2021/12/26 00:57:47;;;;;;;4.80;4.50;;;;;;;-3.46;63.58;100507.53;5129793;27;20426;-71
2021/12/26 01:00:22;;;;;;;4.23;4.13;;;;;;;-3.48;63.53;100504.97;5095615;28;20471;-71
2021/12/26 01:02:50;;;;;;;4.97;4.20;;;;;;;-3.44;63.31;100500.75;5129777;27;20432;-71
2021/12/26 01:05:20;;;;;;;4.63;4.43;;;;;;;-3.53;63.35;100498.06;5095532;28;20457;-71
2021/12/26 01:10:19;;;;;;;5.17;4.97;;;;;;;-3.27;63.15;100494.13;5096747;28;20771;-73
2021/12/26 01:12:47;;;;;;;5.13;4.83;;;;;;;-3.29;63.41;100487.25;5129588;27;20538;-73
2021/12/26 01:15:14;;;;;;;4.67;4.37;;;;;;;-3.41;63.64;100485.44;5095295;28;20477;-74
2021/12/26 01:17:47;;;;;;;5.07;4.87;;;;;;;-3.45;63.55;100487.09;5129458;27;20439;-71
2021/12/26 01:20:44;;;;;;;4.10;4.00;;;;;;;-3.57;64.09;100486.06;5095356;28;20418;-71
2021/12/26 01:23:14;;;;;;;4.70;4.60;;;;;;;-3.51;64.14;100488.72;5130315;27;20451;-71
2021/12/26 01:25:41;;;;;;;4.03;3.93;;;;;;;-3.52;64.00;100484.44;5095198;28;20529;-71
2021/12/26 01:28:08;;;;;;;5.27;5.17;;;;;;;-3.49;63.91;100479.38;5095125;28;20443;-71
2021/12/26 01:30:38;;;;;;;4.47;4.30;;;;;;;-3.44;64.00;100472.59;5096624;28;20436;-71
2021/12/26 01:33:11;;;;;;;4.10;4.07;;;;;;;-3.46;64.54;100474.28;5129168;27;20438;-71
2021/12/26 01:35:50;;;;;;;4.43;4.00;;;;;;;-3.44;63.86;100476.00;5094991;28;20838;-71
2021/12/26 01:38:32;;;;;;;3.90;3.90;;;;;;;-3.35;63.42;100472.72;5128329;27;20902;-71
2021/12/26 01:41:40;;;;;;;4.53;4.20;;;;;;;-3.41;64.09;100478.63;5033942;28;20472;-71
2021/12/26 01:44:25;;;;;;;4.73;4.53;;;;;;;-3.53;64.09;100478.47;5034073;28;20999;-70
2021/12/26 01:46:52;;;;;;;4.10;3.80;;;;;;;-3.47;64.29;100478.53;5065012;28;20522;-71
2021/12/26 01:49:26;;;;;;;4.27;3.97;;;;;;;-3.52;64.26;100475.06;5095006;28;20424;-71
2021/12/26 01:51:55;;;;;;;4.67;4.57;;;;;;;-3.55;63.76;100481.84;5096002;28;20430;-71
2021/12/26 01:54:30;;;;;;;5.27;4.87;;;;;;;-3.57;64.32;100473.28;5094604;28;20436;-71
2021/12/26 01:57:00;;;;;;;5.03;4.77;;;;;;;-3.49;63.67;100464.88;5129009;27;20447;-71
2021/12/26 01:59:28;;;;;;;4.60;4.50;;;;;;;-3.53;64.25;100472.50;5096346;28;20443;-71
2021/12/26 02:02:06;;;;;;;5.20;4.73;;;;;;;-3.56;63.67;100469.91;5128965;27;20470;-71
2021/12/26 02:04:36;;;;;;;6.00;4.23;;;;;;;-3.61;63.65;100480.94;5095185;28;20463;-71
2021/12/26 02:07:05;;;;;;;7.13;4.93;;;;;;;-3.55;63.68;100480.16;5095956;28;20901;-71
2021/12/26 02:09:32;;;;;;;3.87;3.73;;;;;;;-3.50;63.77;100477.63;5095239;28;20436;-71
2021/12/26 02:12:01;;;;;;;4.97;4.63;;;;;;;-3.52;64.00;100479.31;5094310;28;20467;-71
2021/12/26 02:14:28;;;;;;;4.80;4.70;;;;;;;-3.35;63.43;100477.84;5094738;28;20483;-71
2021/12/26 02:17:21;;;;;;;4.23;4.00;;;;;;;-3.47;63.06;100478.53;5095570;28;20438;-71
2021/12/26 02:19:50;;;;;;;4.30;4.10;;;;;;;-3.61;63.11;100472.41;5095332;28;20458;-71
2021/12/26 02:22:25;;;;;;;4.73;4.67;;;;;;;-3.64;63.42;100465.56;5094688;28;20446;-71
2021/12/26 02:27:46;;;;;;;6.77;4.53;;;;;;;-3.55;63.55;100469.06;5070899;28;20504;-71
2021/12/26 02:30:15;;;;;;;4.63;4.53;;;;;;;-3.67;64.08;100469.75;5094229;28;20519;-71
2021/12/26 02:32:47;;;;;;;4.70;4.50;;;;;;;-3.56;63.46;100467.34;5093931;28;20429;-71
2021/12/26 02:35:15;;;;;;;4.63;4.53;;;;;;;-3.70;63.53;100470.59;5095610;28;20784;-71
2021/12/26 02:37:41;;;;;;;4.80;4.67;;;;;;;-3.70;63.28;100462.06;5093749;28;20430;-71
2021/12/26 02:40:09;;;;;;;4.17;4.03;;;;;;;-3.75;63.45;100459.44;5093758;28;20467;-71
2021/12/26 02:42:36;;;;;;;5.57;5.23;;;;;;;-3.70;64.00;100456.94;5127869;27;20445;-71
2021/12/26 02:45:03;;;;;;;4.80;4.70;;;;;;;-3.61;64.00;100451.94;5093620;28;20970;-71
2021/12/26 02:47:31;;;;;;;4.33;4.23;;;;;;;-3.66;64.28;100458.69;5127742;27;20443;-71
2021/12/26 02:50:05;;;;;;;4.67;4.57;;;;;;;-3.56;63.63;100460.53;5093764;28;20433;-71
2021/12/26 02:52:31;;;;;;;4.63;4.27;;;;;;;-3.64;64.65;100455.31;5094824;28;20407;-71
2021/12/26 02:55:01;;;;;;;4.63;4.53;;;;;;;-3.58;64.40;100451.97;5093392;28;20465;-71
2021/12/26 02:57:28;;;;;;;4.27;4.17;;;;;;;-3.63;64.08;100467.28;5127606;27;20469;-71
2021/12/26 02:59:55;;;;;;;5.67;5.20;;;;;;;-3.60;63.26;100456.22;5093287;28;21022;-71
2021/12/26 03:02:21;;;;;;;4.63;4.47;;;;;;;-3.63;63.49;100451.91;5093368;28;20461;-71
2021/12/26 03:04:48;;;;;;;4.40;4.30;;;;;;;-3.55;63.94;100448.59;5094524;28;20506;-71
2021/12/26 03:07:16;;;;;;;4.70;4.50;;;;;;;-3.55;63.41;100453.72;5093200;28;20963;-71
2021/12/26 03:09:47;;;;;;;4.20;4.00;;;;;;;-3.53;63.50;100450.31;5095056;28;20463;-71
2021/12/26 03:12:14;;;;;;;4.70;4.60;;;;;;;-3.53;63.70;100452.03;5094775;28;20849;-71
2021/12/26 03:14:41;;;;;;;4.90;4.60;;;;;;;-3.51;62.80;100447.78;5094274;28;20452;-71
2021/12/26 03:17:09;;;;;;;4.63;4.40;;;;;;;-3.50;62.95;100452.03;5128418;27;20441;-71
2021/12/26 03:19:36;;;;;;;5.03;4.93;;;;;;;-3.69;62.84;100456.97;5092930;28;20828;-71
2021/12/26 03:22:04;;;;;;;5.20;5.10;;;;;;;-3.64;63.39;100450.22;5127169;27;20451;-71
2021/12/26 03:24:31;;;;;;;4.17;4.03;;;;;;;-3.50;62.90;100457.16;5094764;28;20451;-71
2021/12/26 03:26:59;;;;;;;4.80;4.70;;;;;;;-3.66;63.02;100451.00;5094022;28;20513;-71
2021/12/26 03:29:30;;;;;;;4.87;4.57;;;;;;;-3.54;62.32;100450.31;5092863;28;20441;-71
2021/12/26 03:31:57;;;;;;;4.63;4.53;;;;;;;-3.57;62.88;100453.69;5093075;28;20492;-71
2021/12/26 03:34:23;;;;;;;6.93;5.30;;;;;;;-3.63;63.25;100454.47;5092647;28;20825;-71
2021/12/26 03:36:52;;;;;;;3.90;3.80;;;;;;;-3.67;63.12;100450.16;5092967;28;20448;-71
2021/12/26 03:39:23;;;;;;;4.70;4.60;;;;;;;-3.70;63.08;100455.25;5092577;28;20493;-71
2021/12/26 03:41:50;;;;;;;8.17;5.23;;;;;;;-3.55;62.55;100454.56;5092953;28;20938;-71
2021/12/26 03:44:17;;;;;;;4.03;3.83;;;;;;;-3.53;62.78;100452.03;5092536;28;21005;-71
2021/12/26 03:46:46;;;;;;;5.23;4.80;;;;;;;-3.47;62.66;100452.94;5126572;27;20522;-71
2021/12/26 03:49:13;;;;;;;5.60;5.40;;;;;;;-3.41;62.37;100447.91;5093324;28;20771;-71
2021/12/26 03:51:39;;;;;;;5.60;5.10;;;;;;;-3.38;62.49;100449.63;5094013;28;20532;-71
2021/12/26 03:54:06;;;;;;;5.23;4.97;;;;;;;-3.48;61.79;100451.25;5092395;28;20444;-71
2021/12/26 03:56:34;;;;;;;5.77;5.07;;;;;;;-3.53;62.19;100446.91;5092439;28;20423;-71
2021/12/26 03:59:08;;;;;;;5.93;5.43;;;;;;;-3.43;61.73;100446.16;5126483;27;20528;-71
2021/12/26 04:01:35;;;;;;;5.63;5.17;;;;;;;-3.47;62.26;100442.72;5092770;28;20452;-71
2021/12/26 04:04:02;;;;;;;5.50;5.07;;;;;;;-3.42;61.70;100440.22;5092270;28;20525;-71
2021/12/26 04:06:29;;;;;;;5.57;5.27;;;;;;;-3.51;61.98;100435.84;5092275;28;20505;-71
2021/12/26 04:08:56;;;;;;;4.17;3.87;;;;;;;-3.54;62.29;100432.41;5126274;27;20435;-71
2021/12/26 04:11:23;;;;;;;4.40;4.07;;;;;;;-3.43;63.02;100433.34;5093016;28;20469;-71
2021/12/26 04:13:50;;;;;;;5.27;4.90;;;;;;;-3.53;62.20;100437.53;5126356;27;20463;-71
2021/12/26 04:16:16;;;;;;;4.10;3.97;;;;;;;-3.60;61.89;100439.16;5126280;27;20810;-71
2021/12/26 04:18:43;;;;;;;4.53;4.33;;;;;;;-3.58;62.03;100433.19;5092272;28;20580;-71
2021/12/26 04:21:10;;;;;;;7.43;4.13;;;;;;;-3.55;62.37;100431.53;5092163;28;20440;-71
2021/12/26 04:23:51;;;;;;;4.90;3.70;;;;;;;-3.33;61.88;100430.06;5092646;28;20511;-71
2021/12/26 04:26:17;;;;;;;4.97;4.50;;;;;;;-3.40;61.27;100428.28;5093243;28;20875;-71
2021/12/26 04:28:44;;;;;;;4.53;4.40;;;;;;;-3.37;61.49;100429.16;5093335;28;20409;-71
2021/12/26 04:31:11;;;;;;;6.27;4.63;;;;;;;-3.49;62.24;100429.06;5092313;28;20469;-71
2021/12/26 04:33:37;;;;;;;4.97;4.50;;;;;;;-3.51;61.65;100422.19;5093830;28;20470;-71
2021/12/26 04:36:04;;;;;;;4.23;4.13;;;;;;;-3.43;61.67;100420.56;5093151;28;20446;-71
2021/12/26 04:38:31;;;;;;;4.47;4.37;;;;;;;-3.44;62.38;100424.81;5091999;28;20441;-71
2021/12/26 04:40:57;;;;;;;4.57;4.37;;;;;;;-3.47;62.56;100421.38;5092190;28;20460;-71
2021/12/26 04:43:42;;;;;;;9.23;4.67;;;;;;;-3.43;61.96;100431.69;5092182;28;20521;-71
2021/12/26 04:46:32;;;;;;;4.20;4.10;;;;;;;-3.48;61.57;100429.91;5087312;28;20551;-71
2021/12/26 04:49:04;;;;;;;3.70;3.70;;;;;;;-3.50;62.13;100437.56;5091910;28;20505;-71
2021/12/26 04:51:30;;;;;;;4.07;3.87;;;;;;;-3.40;61.56;100439.38;5125871;28;20441;-71
2021/12/26 04:54:03;;;;;;;3.80;3.80;;;;;;;-3.41;61.76;100426.56;5125883;28;20531;-71
2021/12/26 04:56:31;;;;;;;8.90;4.00;;;;;;;-3.48;62.00;100430.78;5091691;28;20493;-71
2021/12/26 04:58:59;;;;;;;4.43;4.23;;;;;;;-3.43;62.31;100426.56;5125708;28;20501;-71
2021/12/26 05:01:25;;;;;;;5.50;5.40;;;;;;;-3.44;61.51;100426.53;5091705;28;20519;-71
2021/12/26 05:03:52;;;;;;;5.27;5.17;;;;;;;-3.47;62.26;100421.38;5093021;28;20430;-71
2021/12/26 05:06:22;;;;;;;5.23;5.23;;;;;;;-3.48;63.01;100419.69;5091601;28;20875;-71
2021/12/26 05:08:49;;;;;;;5.13;4.93;;;;;;;-3.43;62.07;100418.00;5126063;28;20431;-71
2021/12/26 05:11:15;;;;;;;5.30;5.10;;;;;;;-3.42;62.20;100424.88;5091633;28;20488;-71
2021/12/26 05:13:42;;;;;;;5.03;4.87;;;;;;;-3.42;62.87;100423.16;5094961;28;20434;-71
2021/12/26 05:16:08;;;;;;;5.63;5.53;;;;;;;-3.42;62.42;100419.75;5096566;28;20514;-71
2021/12/26 05:18:36;;;;;;;7.13;6.63;;;;;;;-3.32;62.03;100416.44;5095382;28;20883;-71
2021/12/26 05:21:04;;;;;;;5.60;5.33;;;;;;;-3.38;62.42;100412.09;5095315;28;20923;-71
2021/12/26 05:23:31;;;;;;;5.43;5.30;;;;;;;-3.38;62.14;100406.97;5096828;28;20412;-71
2021/12/26 05:25:59;;;;;;;5.00;4.90;;;;;;;-3.31;62.14;100410.47;5129280;27;20999;-71
2021/12/26 05:28:28;;;;;;;8.27;4.77;;;;;;;-3.33;61.80;100404.47;5129900;27;20426;-71
2021/12/26 05:30:56;;;;;;;4.87;4.77;;;;;;;-3.25;62.14;100407.09;5095406;28;20440;-71
2021/12/26 05:33:30;;;;;;;5.37;5.17;;;;;;;-3.21;62.22;100402.03;5095340;28;20852;-71
2021/12/26 05:35:59;;;;;;;5.10;4.97;;;;;;;-3.17;61.92;100403.75;5094973;28;20895;-71
2021/12/26 05:38:28;;;;;;;5.67;5.20;;;;;;;-3.22;62.41;100399.44;5095526;28;20446;-71
2021/12/26 05:40:55;;;;;;;5.93;5.73;;;;;;;-3.29;62.56;100393.41;5094999;28;20473;-71
2021/12/26 05:43:22;;;;;;;6.00;5.90;;;;;;;-3.22;62.63;100397.75;5094817;28;20491;-71
2021/12/26 05:45:49;;;;;;;6.47;6.17;;;;;;;-3.18;62.33;100396.94;5094758;28;20460;-71
2021/12/26 05:48:18;;;;;;;5.87;5.43;;;;;;;-3.37;62.67;100392.47;5094755;28;20440;-71
2021/12/26 05:50:46;;;;;;;5.03;5.03;;;;;;;-3.30;63.22;100386.56;5095327;28;20768;-71
2021/12/26 05:53:32;;;;;;;5.90;5.60;;;;;;;-3.35;63.31;100380.56;5095762;28;20435;-71
2021/12/26 05:55:59;;;;;;;6.37;6.17;;;;;;;-3.16;62.85;100382.44;5094669;28;20868;-71
2021/12/26 05:58:26;;;;;;;5.13;4.83;;;;;;;-3.08;63.04;100385.91;5094627;28;20491;-71
2021/12/26 06:00:52;;;;;;;6.03;5.93;;;;;;;-3.14;62.58;100385.91;5094392;28;20494;-71
2021/12/26 06:03:19;;;;;;;5.97;5.57;;;;;;;-3.22;63.60;100389.19;5094368;28;20456;-71
2021/12/26 06:05:46;;;;;;;6.20;6.00;;;;;;;-3.28;63.62;100395.16;5094430;28;20498;-70
2021/12/26 06:08:12;;;;;;;7.40;6.20;;;;;;;-3.24;63.28;100389.19;5094704;28;20467;-70
2021/12/26 06:10:40;;;;;;;4.67;4.57;;;;;;;-3.21;63.37;100379.00;5094648;28;20448;-71
2021/12/26 06:13:06;;;;;;;6.73;6.60;;;;;;;-3.20;64.03;100387.53;5094339;28;20435;-71
2021/12/26 06:15:33;;;;;;;6.70;6.30;;;;;;;-3.10;63.39;100389.31;5094790;28;20804;-71
2021/12/26 06:18:00;;;;;;;7.03;6.37;;;;;;;-3.14;63.62;100379.91;5095535;28;20422;-71
2021/12/26 06:20:49;;;;;;;5.17;5.07;;;;;;;-2.95;63.78;100386.03;5095340;28;20820;-71
2021/12/26 06:23:35;;;;;;;6.17;5.97;;;;;;;-2.98;63.39;100386.88;5095682;28;20579;-71
2021/12/26 06:26:25;;;;;;;6.33;4.43;;;;;;;-3.10;64.15;100374.81;5095048;28;20905;-71
2021/12/26 06:28:51;;;;;;;5.57;5.37;;;;;;;-3.12;64.16;100368.84;5094023;28;20956;-71
2021/12/26 06:31:38;;;;;;;5.60;5.40;;;;;;;-3.21;63.81;100379.00;5087683;28;20561;-71
2021/12/26 06:34:16;;;;;;;4.83;4.63;;;;;;;-3.16;64.64;100377.31;5095659;28;20415;-71
2021/12/26 06:37:02;;;;;;;5.87;5.57;;;;;;;-3.17;64.88;100382.44;5095309;28;20410;-71
2021/12/26 06:39:47;;;;;;;6.00;5.77;;;;;;;-3.07;65.14;100379.97;5095302;28;20973;-71
2021/12/26 06:42:33;;;;;;;5.70;5.40;;;;;;;-3.06;65.27;100374.00;5095597;28;20418;-71
2021/12/26 06:45:23;;;;;;;6.33;6.10;;;;;;;-3.05;64.73;100380.84;5075191;28;20508;-71
2021/12/26 06:48:22;;;;;;;5.37;5.27;;;;;;;-3.08;65.15;100385.91;5061038;28;21044;-71
2021/12/26 06:50:50;;;;;;;5.37;5.03;;;;;;;-2.97;65.14;100382.59;5093567;28;20438;-71
2021/12/26 06:53:16;;;;;;;6.17;5.83;;;;;;;-2.95;64.89;100374.06;5095316;28;20438;-71
2021/12/26 06:55:44;;;;;;;6.20;6.07;;;;;;;-2.97;64.69;100368.09;5094703;28;20457;-71
2021/12/26 06:58:12;;;;;;;5.80;5.37;;;;;;;-3.01;65.47;100375.72;5127526;27;20434;-71
2021/12/26 07:00:39;;;;;;;5.00;4.90;;;;;;;-2.99;65.09;100374.06;5093299;28;20454;-71
2021/12/26 07:03:07;;;;;;;4.73;4.63;;;;;;;-3.10;65.60;100372.25;5093337;28;20446;-71
2021/12/26 07:05:35;;;;;;;5.50;5.20;;;;;;;-2.92;65.61;100368.16;5093254;28;20551;-71
2021/12/26 07:08:08;;;;;;;5.07;4.70;;;;;;;-2.99;65.93;100363.81;5093603;28;20525;-71
2021/12/26 07:10:37;;;;;;;5.20;5.10;;;;;;;-2.92;65.44;100370.72;5093147;28;20437;-71
2021/12/26 07:13:04;;;;;;;5.97;5.73;;;;;;;-3.02;66.03;100371.47;5093186;28;20441;-71
2021/12/26 07:15:36;;;;;;;6.10;5.60;;;;;;;-3.01;65.69;100373.16;5093096;28;20470;-71
2021/12/26 07:18:04;;;;;;;5.30;5.10;;;;;;;-2.91;65.72;100370.72;5127173;27;20438;-71
2021/12/26 07:20:35;;;;;;;5.83;5.43;;;;;;;-2.97;66.27;100372.38;5093000;28;20965;-71
2021/12/26 07:23:20;;;;;;;5.50;5.40;;;;;;;-2.92;66.41;100365.59;5094506;28;20494;-71
2021/12/26 07:25:51;;;;;;;6.53;5.80;;;;;;;-2.94;66.65;100373.22;5093183;28;20523;-71
2021/12/26 07:28:17;;;;;;;5.80;5.33;;;;;;;-2.89;66.69;100378.41;5092795;28;20450;-71
2021/12/26 07:31:10;;;;;;;6.00;5.70;;;;;;;-2.86;66.48;100380.97;5090904;28;20441;-71
2021/12/26 07:33:37;;;;;;;6.07;5.57;;;;;;;-2.93;66.73;100380.09;5126910;27;20529;-71
2021/12/26 07:36:05;;;;;;;6.10;5.90;;;;;;;-2.93;67.53;100379.22;5093552;28;20455;-71
2021/12/26 07:38:39;;;;;;;5.77;5.13;;;;;;;-2.91;67.54;100370.72;5093596;28;20823;-71
2021/12/26 07:41:23;;;;;;;5.20;4.87;;;;;;;-2.86;67.21;100378.41;5092464;28;20486;-71
2021/12/26 07:43:51;;;;;;;6.13;5.53;;;;;;;-2.82;67.13;100385.28;5126780;27;20430;-71
2021/12/26 07:46:24;;;;;;;6.03;5.93;;;;;;;-2.86;67.48;100375.84;5094448;28;20541;-71
2021/12/26 07:48:52;;;;;;;5.60;5.10;;;;;;;-2.85;67.31;100385.28;5092563;28;20430;-72
2021/12/26 07:51:38;;;;;;;5.93;5.83;;;;;;;-2.82;67.39;100382.72;5094204;28;20403;-73
2021/12/26 07:54:24;;;;;;;5.60;5.30;;;;;;;-2.85;67.71;100375.03;5094300;28;20464;-73
2021/12/26 07:57:14;;;;;;;7.10;6.80;;;;;;;-2.81;67.67;100382.72;5065149;28;20437;-73
2021/12/26 07:59:59;;;;;;;5.13;5.03;;;;;;;-2.67;67.46;100377.69;5094022;28;20567;-73
2021/12/26 08:02:44;;;;;;;7.40;6.83;;;;;;;-2.71;67.81;100375.97;5093688;28;20413;-73
2021/12/26 08:05:29;;;;;;;5.43;5.13;;;;;;;-2.64;67.66;100375.19;5093776;28;20452;-73
2021/12/26 08:08:12;;;;;;;5.60;5.37;;;;;;;-2.58;67.31;100364.09;5092336;28;20442;-73
2021/12/26 08:10:38;;;;;;;6.37;5.90;;;;;;;-2.68;67.59;100376.00;5126290;27;20430;-73
2021/12/26 08:13:05;;;;;;;6.50;6.20;;;;;;;-2.67;68.17;100364.88;5092230;28;21003;-73
2021/12/26 08:15:32;;;;;;;7.03;6.57;;;;;;;-2.60;68.14;100374.34;5093686;28;20452;-72
2021/12/26 08:17:58;;;;;;;7.17;6.57;;;;;;;-2.47;67.85;100382.09;5094003;28;20406;-73
2021/12/26 08:20:25;;;;;;;6.20;5.90;;;;;;;-2.44;67.35;100364.16;5093618;28;20820;-73
2021/12/26 08:22:51;;;;;;;5.57;5.27;;;;;;;-2.43;68.02;100371.00;5093922;28;20969;-73
2021/12/26 08:25:18;;;;;;;6.30;5.90;;;;;;;-2.47;67.66;100369.28;5093414;28;20507;-73
2021/12/26 08:27:44;;;;;;;5.63;5.33;;;;;;;-2.42;67.98;100358.22;5093384;28;20488;-73
2021/12/26 08:30:11;;;;;;;6.80;6.30;;;;;;;-2.54;68.46;100361.56;5093275;28;20919;-73
2021/12/26 08:32:40;;;;;;;7.20;6.30;;;;;;;-2.37;68.44;100359.09;5093645;28;20403;-72
2021/12/26 08:35:07;;;;;;;6.37;5.97;;;;;;;-2.20;67.61;100366.03;5093756;28;20468;-73
2021/12/26 08:37:37;;;;;;;5.53;5.33;;;;;;;-2.23;67.81;100366.84;5093476;28;20456;-73
2021/12/26 08:40:04;;;;;;;5.97;5.83;;;;;;;-2.40;68.02;100365.91;5093121;28;20427;-73
2021/12/26 08:42:31;;;;;;;6.43;6.13;;;;;;;-2.42;68.65;100372.75;5093191;28;20487;-73
2021/12/26 08:44:59;;;;;;;5.90;5.60;;;;;;;-2.27;68.24;100367.69;5093378;28;20446;-73
2021/12/26 08:47:26;;;;;;;6.13;5.83;;;;;;;-2.39;68.49;100373.59;5093229;28;20837;-73
2021/12/26 08:49:53;;;;;;;5.47;5.17;;;;;;;-2.33;68.67;100376.22;5097180;28;20430;-73
2021/12/26 08:52:19;;;;;;;7.93;7.33;;;;;;;-2.23;69.05;100369.41;5097347;28;20760;-73
2021/12/26 08:54:46;;;;;;;5.97;5.63;;;;;;;-2.22;68.76;100366.00;5097553;28;20446;-73
2021/12/26 08:57:15;;;;;;;7.20;6.57;;;;;;;-2.01;67.82;100376.34;5097635;28;20981;-73
2021/12/26 08:59:42;;;;;;;5.60;5.30;;;;;;;-2.01;68.23;100381.47;5097561;28;20422;-73
2021/12/26 09:02:09;;;;;;;6.40;6.07;;;;;;;-2.07;68.42;100391.75;5097214;28;20446;-73
2021/12/26 09:04:37;;;;;;;11.20;6.73;;;;;;;-2.17;69.05;100383.97;5097096;28;20453;-73
2021/12/26 09:07:05;;;;;;;6.63;6.27;;;;;;;-2.12;68.92;100372.91;5097199;28;20495;-73
2021/12/26 09:09:32;;;;;;;6.50;6.10;;;;;;;-2.07;69.05;100380.59;5097223;28;20406;-73
2021/12/26 09:11:59;;;;;;;6.33;5.77;;;;;;;-1.95;68.78;100378.09;5096803;28;20418;-73
2021/12/26 09:14:31;;;;;;;6.37;5.97;;;;;;;-2.08;69.16;100372.03;5097298;28;20406;-73
2021/12/26 09:16:59;;;;;;;6.90;5.80;;;;;;;-2.01;69.25;100375.50;5097026;28;20440;-73
2021/12/26 09:19:28;;;;;;;6.13;5.63;;;;;;;-2.01;69.20;100376.34;5096678;28;20426;-73
2021/12/26 09:22:00;;;;;;;6.07;5.77;;;;;;;-1.98;69.40;100376.38;5097019;28;20536;-74
2021/12/26 09:24:26;;;;;;;6.87;6.23;;;;;;;-2.01;70.04;100381.47;5096930;28;20781;-74
2021/12/26 09:26:53;;;;;;;7.20;6.77;;;;;;;-1.97;69.57;100379.81;5096395;28;20266;-74
2021/12/26 09:29:19;;;;;;;6.33;5.93;;;;;;;-1.95;69.52;100376.38;5096500;28;20427;-73
2021/12/26 09:31:46;;;;;;;7.00;6.47;;;;;;;-1.85;69.40;100384.13;5096682;28;20746;-73
2021/12/26 09:34:14;;;;;;;7.20;6.67;;;;;;;-1.81;69.62;100378.13;5096814;28;20414;-73
2021/12/26 09:36:43;;;;;;;6.20;5.70;;;;;;;-1.87;69.58;100378.13;5096928;28;20410;-73
2021/12/26 09:39:10;;;;;;;7.97;7.03;;;;;;;-1.75;69.57;100379.03;5096867;28;20566;-73
2021/12/26 09:41:37;;;;;;;6.73;6.33;;;;;;;-1.80;69.51;100385.84;5096498;28;20462;-73
2021/12/26 09:44:05;;;;;;;7.60;7.00;;;;;;;-1.71;69.71;100375.63;5096681;28;20417;-73
2021/12/26 09:46:33;;;;;;;6.60;6.20;;;;;;;-1.56;69.19;100382.50;5096055;28;20602;-73
2021/12/26 09:49:00;;;;;;;7.10;6.60;;;;;;;-1.57;69.59;100378.22;5096075;28;20273;-73
2021/12/26 09:51:27;;;;;;;9.17;6.57;;;;;;;-1.55;69.58;100381.66;5096441;28;20407;-73
2021/12/26 09:53:54;;;;;;;6.43;6.10;;;;;;;-1.40;69.59;100386.81;5095978;28;20927;-73
2021/12/26 09:56:20;;;;;;;7.07;6.60;;;;;;;-1.46;69.57;100376.53;5095972;28;20442;-74
2021/12/26 09:58:54;;;;;;;7.67;7.13;;;;;;;-1.31;69.73;100379.97;5095341;28;20255;-74
2021/12/26 10:01:56;;;;;;;7.87;6.87;;;;;;;-1.43;69.16;100376.56;5096096;28;20450;-74
2021/12/26 10:04:45;;;;;;;7.23;6.80;;;;;;;-1.44;69.49;100374.81;5096212;28;20690;-73
2021/12/26 10:07:18;;;;;;;7.10;6.63;;;;;;;-1.36;69.52;100361.97;5095799;28;20410;-73
2021/12/26 10:09:47;;;;;;;5.70;5.47;;;;;;;-1.30;69.75;100369.69;5095969;28;20205;-74
2021/12/26 10:12:15;;;;;;;6.70;6.33;;;;;;;-1.21;69.26;100363.75;5095935;28;20178;-74
2021/12/26 10:14:46;;;;;;;6.50;5.90;;;;;;;-1.42;69.74;100356.88;5095788;28;20446;-73
2021/12/26 10:17:15;;;;;;;9.00;6.37;;;;;;;-1.46;69.84;100361.13;5095615;28;20174;-73
2021/12/26 10:19:45;;;;;;;10.50;6.63;;;;;;;-1.41;69.97;100363.72;5095799;28;20202;-73
2021/12/26 10:22:14;;;;;;;6.47;6.17;;;;;;;-1.46;70.36;100356.00;5095375;28;20201;-73
2021/12/26 10:24:49;;;;;;;8.13;7.27;;;;;;;-1.54;71.05;100349.13;5095273;28;20232;-73
2021/12/26 10:27:31;;;;;;;7.20;6.70;;;;;;;-1.40;70.93;100342.31;5095416;28;20194;-74
2021/12/26 10:30:00;;;;;;;7.30;6.73;;;;;;;-1.44;70.75;100333.72;5095553;28;20174;-73
2021/12/26 10:32:31;;;;;;;6.83;6.53;;;;;;;-1.24;70.44;100330.34;5095533;28;20190;-73
2021/12/26 10:35:04;;;;;;;7.40;7.00;;;;;;;-1.14;70.53;100326.94;5095976;28;20754;-73
2021/12/26 10:37:35;;;;;;;6.97;6.33;;;;;;;-1.06;70.46;100320.06;5128655;27;20189;-73
2021/12/26 10:40:10;;;;;;;6.90;6.30;;;;;;;-1.07;70.49;100325.19;5093801;28;20198;-73
2021/12/26 10:42:44;;;;;;;6.87;6.47;;;;;;;-1.12;70.91;100320.91;5127852;27;20880;-73
2021/12/26 10:45:14;;;;;;;7.90;7.30;;;;;;;-1.03;70.50;100325.19;5095123;28;20718;-73
2021/12/26 10:47:44;;;;;;;8.40;7.60;;;;;;;-0.87;70.93;100326.88;5095200;28;20412;-73
2021/12/26 10:50:18;;;;;;;8.37;7.63;;;;;;;-0.88;70.63;100320.03;5095188;28;20170;-73
2021/12/26 10:52:51;;;;;;;8.67;8.07;;;;;;;-0.76;70.55;100319.16;5095187;28;20175;-73
2021/12/26 10:55:20;;;;;;;8.00;7.60;;;;;;;-0.86;70.58;100314.88;5095021;28;20206;-73
2021/12/26 10:57:50;;;;;;;8.93;7.97;;;;;;;-0.76;70.90;100308.03;5095312;28;20182;-73
2021/12/26 11:00:29;;;;;;;9.30;8.13;;;;;;;-0.67;70.67;100314.00;5095241;28;20190;-74
2021/12/26 11:03:00;;;;;;;7.83;7.13;;;;;;;-0.71;71.07;100303.75;5094861;28;20252;-74
2021/12/26 11:05:38;;;;;;;9.87;8.03;;;;;;;-0.61;70.83;100302.88;5095124;28;20642;-73
2021/12/26 11:08:15;;;;;;;8.07;7.20;;;;;;;-0.56;70.64;100301.13;5094599;28;20185;-73
2021/12/26 11:10:51;;;;;;;8.30;7.70;;;;;;;-0.45;70.85;100294.22;5093942;28;20243;-73
2021/12/26 11:13:25;;;;;;;9.17;8.43;;;;;;;-0.43;70.74;100289.06;5094717;28;20174;-73
2021/12/26 11:16:01;;;;;;;8.27;7.67;;;;;;;-0.33;71.31;100289.06;5094659;28;20218;-73
2021/12/26 11:18:28;;;;;;;7.93;7.37;;;;;;;-0.19;70.39;100285.56;5127197;27;20186;-73
2021/12/26 11:21:03;;;;;;;10.70;9.17;;;;;;;-0.24;70.72;100282.16;5094811;28;20218;-74
2021/12/26 11:23:32;;;;;;;10.87;9.20;;;;;;;-0.26;71.10;100294.19;5094627;28;20170;-74
2021/12/26 11:26:04;;;;;;;9.53;8.73;;;;;;;-0.24;70.99;100288.16;5094003;28;20691;-74
2021/12/26 11:28:36;;;;;;;9.60;8.90;;;;;;;-0.28;70.86;100289.91;5094251;28;20186;-73
2021/12/26 11:31:07;;;;;;;9.63;8.83;;;;;;;-0.17;70.91;100279.53;5094242;28;20574;-73
2021/12/26 11:33:34;;;;;;;9.10;8.20;;;;;;;-0.16;71.09;100275.25;5094159;28;20186;-74
2021/12/26 11:36:04;;;;;;;9.77;9.00;;;;;;;-0.26;71.64;100274.44;5093946;28;20212;-73
2021/12/26 11:38:31;;;;;;;8.53;7.93;;;;;;;-0.24;71.98;100277.88;5094330;28;20187;-74
2021/12/26 11:41:46;;;;;;;9.07;8.27;;;;;;;-0.23;72.19;100271.84;5072139;28;20224;-74
2021/12/26 11:45:00;;;;;;;10.40;9.33;;;;;;;-0.22;72.16;100270.97;5093910;28;20315;-74
2021/12/26 11:47:59;;;;;;;10.03;9.10;;;;;;;-0.05;72.04;100273.50;5074931;28;20200;-74